EAG5520 SKCL-SVMC
Flight info
| Callsign | EAG5520 |
|---|---|
| Flight time | N/A |
| Altitude | 35000 |
| Route | ULQ1K ULQ DCT RNG UW26 CUC UW1 ENPUT UG431 STB/N0429F230 W1 BOBAT BOBAT1 |
| Aircraft | B738/M-SDE2E3FGHIRWXY/LB1 |
Departure
| Time | N/A |
|---|---|
| Airport | Alfonso Bonilla Aragon International Airport (SKCL) |
Arrival
| Time | 2026-05-04 14:33 |
|---|---|
| Airport | La Chinita International Airport (SVMC) |
| Time | Latitude | Longitude | Altitude | Speed | Heading |
|---|---|---|---|---|---|
| 2026-05-04 14:27 | 10.31903 | -71.75099 | 4146 ft | 203 kts | 349° |
| 2026-05-04 14:27 | 10.33215 | -71.75603 | 4018 ft | 201 kts | 340° |
| 2026-05-04 14:28 | 10.34518 | -71.76125 | 3849 ft | 202 kts | 340° |
| 2026-05-04 14:28 | 10.35840 | -71.76641 | 3720 ft | 205 kts | 341° |
| 2026-05-04 14:28 | 10.37182 | -71.77165 | 3575 ft | 206 kts | 340° |
| 2026-05-04 14:28 | 10.38508 | -71.77684 | 3414 ft | 201 kts | 341° |
| 2026-05-04 14:29 | 10.41029 | -71.78615 | 3052 ft | 185 kts | 355° |
| 2026-05-04 14:29 | 10.43388 | -71.78112 | 2651 ft | 169 kts | 21° |
| 2026-05-04 14:30 | 10.44481 | -71.77691 | 2418 ft | 165 kts | 24° |
| 2026-05-04 14:30 | 10.45518 | -71.77264 | 2204 ft | 157 kts | 25° |
| 2026-05-04 14:30 | 10.47473 | -71.76439 | 1833 ft | 147 kts | 26° |
| 2026-05-04 14:31 | 10.48398 | -71.76047 | 1627 ft | 143 kts | 24° |
| 2026-05-04 14:31 | 10.50208 | -71.75278 | 1238 ft | 142 kts | 25° |
| 2026-05-04 14:32 | 10.52029 | -71.74502 | 856 ft | 143 kts | 25° |
| 2026-05-04 14:32 | 10.52947 | -71.74125 | 669 ft | 141 kts | 24° |
| 2026-05-04 14:32 | 10.53847 | -71.73737 | 449 ft | 143 kts | 25° |
| 2026-05-04 14:32 | 10.54759 | -71.73345 | 250 ft | 140 kts | 24° |
| 2026-05-04 14:33 | 10.55574 | -71.72999 | 234 ft | 89 kts | 23° |
| 2026-05-04 14:33 | 10.55798 | -71.72888 | 235 ft | 7 kts | 41° |
| 2026-05-04 14:33 | 10.55831 | -71.72852 | 235 ft | 7 kts | 52° |
| 2026-05-04 14:33 | 10.55861 | -71.72813 | 233 ft | 7 kts | 51° |
| 2026-05-04 14:34 | 10.55872 | -71.72798 | 234 ft | 1 kts | 52° |
| 2026-05-04 14:34 | 10.55879 | -71.72790 | 233 ft | 2 kts | 51° |
| 2026-05-04 14:34 | 10.55894 | -71.72770 | 232 ft | 5 kts | 52° |
| 2026-05-04 14:34 | 10.55921 | -71.72734 | 230 ft | 8 kts | 52° |
| 2026-05-04 14:35 | 10.55960 | -71.72682 | 229 ft | 7 kts | 52° |
| 2026-05-04 14:35 | 10.55995 | -71.72636 | 228 ft | 9 kts | 53° |
| 2026-05-04 14:35 | 10.56000 | -71.72577 | 228 ft | 9 kts | 112° |
| 2026-05-04 14:35 | 10.55990 | -71.72553 | 229 ft | 0 kts | 114° |
| 2026-05-04 14:37 | 10.55989 | -71.72551 | 229 ft | 1 kts | 114° |
| 2026-05-04 14:37 | 10.55982 | -71.72535 | 230 ft | 4 kts | 114° |
| 2026-05-04 14:38 | 10.55967 | -71.72499 | 230 ft | 7 kts | 114° |
| 2026-05-04 14:38 | 10.55941 | -71.72445 | 230 ft | 10 kts | 125° |
| 2026-05-04 14:38 | 10.55874 | -71.72448 | 234 ft | 12 kts | 202° |
| 2026-05-04 14:38 | 10.55790 | -71.72485 | 229 ft | 12 kts | 202° |
| 2026-05-04 14:39 | 10.55754 | -71.72496 | 229 ft | 1 kts | 179° |
| 2026-05-04 14:39 | 10.55741 | -71.72486 | 228 ft | 4 kts | 133° |
| 2026-05-04 14:39 | 10.55719 | -71.72457 | 226 ft | 7 kts | 127° |
| 2026-05-04 14:40 | 10.55713 | -71.72449 | 226 ft | 0 kts | 127° |